sensor_id;sensor_type;location;lat;lon;timestamp;P1;durP1;ratioP1;P2;durP2;ratioP2
75417;SDS011;63997;52.112;5.420;2024-01-11T00:02:04;16.33;;;5.40;;
75417;SDS011;63997;52.112;5.420;2024-01-11T00:04:31;12.80;;;5.47;;
75417;SDS011;63997;52.112;5.420;2024-01-11T00:06:58;12.60;;;5.40;;
75417;SDS011;63997;52.112;5.420;2024-01-11T00:09:25;16.23;;;5.35;;
75417;SDS011;63997;52.112;5.420;2024-01-11T00:11:52;10.40;;;5.80;;
75417;SDS011;63997;52.112;5.420;2024-01-11T00:14:18;12.50;;;5.50;;
75417;SDS011;63997;52.112;5.420;2024-01-11T00:16:45;12.80;;;5.75;;
75417;SDS011;63997;52.112;5.420;2024-01-11T00:19:12;10.10;;;5.95;;
75417;SDS011;63997;52.112;5.420;2024-01-11T00:21:38;10.45;;;5.65;;
75417;SDS011;63997;52.112;5.420;2024-01-11T00:24:07;9.45;;;5.13;;
75417;SDS011;63997;52.112;5.420;2024-01-11T00:26:34;11.97;;;5.10;;
75417;SDS011;63997;52.112;5.420;2024-01-11T00:29:00;12.50;;;5.97;;
75417;SDS011;63997;52.112;5.420;2024-01-11T00:31:27;11.68;;;5.53;;
75417;SDS011;63997;52.112;5.420;2024-01-11T00:33:53;14.50;;;6.10;;
75417;SDS011;63997;52.112;5.420;2024-01-11T00:36:20;15.90;;;5.43;;
75417;SDS011;63997;52.112;5.420;2024-01-11T00:38:47;9.10;;;5.90;;
75417;SDS011;63997;52.112;5.420;2024-01-11T00:41:13;10.00;;;5.32;;
75417;SDS011;63997;52.112;5.420;2024-01-11T00:43:40;14.23;;;6.07;;
75417;SDS011;63997;52.112;5.420;2024-01-11T00:46:07;12.40;;;6.03;;
75417;SDS011;63997;52.112;5.420;2024-01-11T00:48:34;11.82;;;5.93;;
75417;SDS011;63997;52.112;5.420;2024-01-11T00:51:00;8.20;;;4.90;;
75417;SDS011;63997;52.112;5.420;2024-01-11T00:53:27;13.40;;;5.45;;
75417;SDS011;63997;52.112;5.420;2024-01-11T00:55:57;12.68;;;5.80;;
75417;SDS011;63997;52.112;5.420;2024-01-11T00:58:24;13.45;;;5.60;;
75417;SDS011;63997;52.112;5.420;2024-01-11T01:00:50;11.65;;;5.72;;
75417;SDS011;63997;52.112;5.420;2024-01-11T01:03:19;11.40;;;5.40;;
75417;SDS011;63997;52.112;5.420;2024-01-11T01:05:47;12.07;;;5.53;;
75417;SDS011;63997;52.112;5.420;2024-01-11T01:08:15;13.18;;;5.32;;
75417;SDS011;63997;52.112;5.420;2024-01-11T01:10:41;15.48;;;5.80;;
75417;SDS011;63997;52.112;5.420;2024-01-11T01:13:08;12.35;;;5.25;;
75417;SDS011;63997;52.112;5.420;2024-01-11T01:15:34;12.50;;;4.67;;
75417;SDS011;63997;52.112;5.420;2024-01-11T01:18:01;11.27;;;5.88;;
75417;SDS011;63997;52.112;5.420;2024-01-11T01:20:28;12.63;;;5.68;;
75417;SDS011;63997;52.112;5.420;2024-01-11T01:22:54;15.75;;;6.45;;
75417;SDS011;63997;52.112;5.420;2024-01-11T01:25:21;8.57;;;5.07;;
75417;SDS011;63997;52.112;5.420;2024-01-11T01:27:47;14.73;;;5.70;;
75417;SDS011;63997;52.112;5.420;2024-01-11T01:30:14;12.88;;;5.88;;
75417;SDS011;63997;52.112;5.420;2024-01-11T01:32:41;10.68;;;5.13;;
75417;SDS011;63997;52.112;5.420;2024-01-11T01:35:07;11.77;;;5.43;;
75417;SDS011;63997;52.112;5.420;2024-01-11T01:37:34;11.02;;;5.07;;
75417;SDS011;63997;52.112;5.420;2024-01-11T01:40:01;9.40;;;4.87;;
75417;SDS011;63997;52.112;5.420;2024-01-11T01:42:27;13.90;;;5.20;;
75417;SDS011;63997;52.112;5.420;2024-01-11T01:44:54;11.35;;;5.13;;
75417;SDS011;63997;52.112;5.420;2024-01-11T01:47:21;14.32;;;5.75;;
75417;SDS011;63997;52.112;5.420;2024-01-11T01:49:48;11.70;;;5.35;;
75417;SDS011;63997;52.112;5.420;2024-01-11T01:52:15;10.70;;;4.87;;
75417;SDS011;63997;52.112;5.420;2024-01-11T01:54:43;13.43;;;5.47;;
75417;SDS011;63997;52.112;5.420;2024-01-11T01:57:09;15.00;;;5.15;;
75417;SDS011;63997;52.112;5.420;2024-01-11T01:59:37;13.20;;;5.85;;
75417;SDS011;63997;52.112;5.420;2024-01-11T02:02:05;17.95;;;5.07;;
75417;SDS011;63997;52.112;5.420;2024-01-11T02:04:33;13.57;;;5.97;;
75417;SDS011;63997;52.112;5.420;2024-01-11T02:07:00;15.20;;;5.78;;
75417;SDS011;63997;52.112;5.420;2024-01-11T02:09:28;10.55;;;5.35;;
75417;SDS011;63997;52.112;5.420;2024-01-11T02:11:56;12.82;;;6.10;;
75417;SDS011;63997;52.112;5.420;2024-01-11T02:14:24;13.57;;;5.20;;
75417;SDS011;63997;52.112;5.420;2024-01-11T02:16:51;17.20;;;7.20;;
75417;SDS011;63997;52.112;5.420;2024-01-11T02:19:18;11.70;;;5.35;;
75417;SDS011;63997;52.112;5.420;2024-01-11T02:21:46;12.73;;;5.68;;
75417;SDS011;63997;52.112;5.420;2024-01-11T02:24:15;13.43;;;6.50;;
75417;SDS011;63997;52.112;5.420;2024-01-11T02:26:58;12.70;;;6.25;;
75417;SDS011;63997;52.112;5.420;2024-01-11T02:29:29;13.80;;;5.63;;
75417;SDS011;63997;52.112;5.420;2024-01-11T02:31:56;20.55;;;6.60;;
75417;SDS011;63997;52.112;5.420;2024-01-11T02:34:24;15.82;;;6.55;;
75417;SDS011;63997;52.112;5.420;2024-01-11T02:36:53;12.98;;;6.18;;
75417;SDS011;63997;52.112;5.420;2024-01-11T02:39:20;14.15;;;6.90;;
75417;SDS011;63997;52.112;5.420;2024-01-11T02:41:53;18.37;;;6.60;;
75417;SDS011;63997;52.112;5.420;2024-01-11T02:44:23;12.95;;;5.45;;
75417;SDS011;63997;52.112;5.420;2024-01-11T02:46:50;14.90;;;6.43;;
75417;SDS011;63997;52.112;5.420;2024-01-11T02:49:17;13.93;;;6.13;;
75417;SDS011;63997;52.112;5.420;2024-01-11T02:51:43;14.82;;;6.35;;
75417;SDS011;63997;52.112;5.420;2024-01-11T02:54:10;14.03;;;6.27;;
75417;SDS011;63997;52.112;5.420;2024-01-11T02:56:36;10.82;;;5.78;;
75417;SDS011;63997;52.112;5.420;2024-01-11T02:59:03;17.42;;;7.45;;
75417;SDS011;63997;52.112;5.420;2024-01-11T03:01:30;15.35;;;6.85;;
75417;SDS011;63997;52.112;5.420;2024-01-11T03:03:57;13.65;;;6.07;;
75417;SDS011;63997;52.112;5.420;2024-01-11T03:06:23;13.40;;;6.57;;
75417;SDS011;63997;52.112;5.420;2024-01-11T03:08:50;14.50;;;6.65;;
75417;SDS011;63997;52.112;5.420;2024-01-11T03:11:17;14.85;;;7.25;;
75417;SDS011;63997;52.112;5.420;2024-01-11T03:13:43;17.98;;;6.35;;
75417;SDS011;63997;52.112;5.420;2024-01-11T03:16:10;16.17;;;6.25;;
75417;SDS011;63997;52.112;5.420;2024-01-11T03:18:36;18.17;;;6.73;;
75417;SDS011;63997;52.112;5.420;2024-01-11T03:21:03;15.38;;;6.03;;
75417;SDS011;63997;52.112;5.420;2024-01-11T03:23:30;12.85;;;6.43;;
75417;SDS011;63997;52.112;5.420;2024-01-11T03:25:56;19.15;;;8.27;;
75417;SDS011;63997;52.112;5.420;2024-01-11T03:28:23;15.05;;;7.68;;
75417;SDS011;63997;52.112;5.420;2024-01-11T03:30:49;15.17;;;7.77;;
75417;SDS011;63997;52.112;5.420;2024-01-11T03:33:16;18.27;;;8.52;;
75417;SDS011;63997;52.112;5.420;2024-01-11T03:35:42;20.33;;;9.18;;
75417;SDS011;63997;52.112;5.420;2024-01-11T03:38:10;16.80;;;7.95;;
75417;SDS011;63997;52.112;5.420;2024-01-11T03:40:37;16.80;;;8.27;;
75417;SDS011;63997;52.112;5.420;2024-01-11T03:43:03;20.97;;;8.47;;
75417;SDS011;63997;52.112;5.420;2024-01-11T03:45:30;22.77;;;9.48;;
75417;SDS011;63997;52.112;5.420;2024-01-11T03:47:56;18.95;;;8.35;;
75417;SDS011;63997;52.112;5.420;2024-01-11T03:50:23;24.35;;;8.75;;
75417;SDS011;63997;52.112;5.420;2024-01-11T03:52:50;21.52;;;10.43;;
75417;SDS011;63997;52.112;5.420;2024-01-11T03:55:16;19.47;;;9.23;;
75417;SDS011;63997;52.112;5.420;2024-01-11T03:57:42;22.33;;;8.95;;
75417;SDS011;63997;52.112;5.420;2024-01-11T04:00:10;24.88;;;10.60;;
75417;SDS011;63997;52.112;5.420;2024-01-11T04:02:37;19.73;;;10.18;;
75417;SDS011;63997;52.112;5.420;2024-01-11T04:05:04;26.30;;;11.48;;
75417;SDS011;63997;52.112;5.420;2024-01-11T04:07:31;19.17;;;10.77;;
75417;SDS011;63997;52.112;5.420;2024-01-11T04:09:57;27.65;;;10.98;;
75417;SDS011;63997;52.112;5.420;2024-01-11T04:12:24;22.80;;;11.13;;
75417;SDS011;63997;52.112;5.420;2024-01-11T04:14:50;25.63;;;11.15;;
75417;SDS011;63997;52.112;5.420;2024-01-11T04:17:17;28.05;;;11.20;;
75417;SDS011;63997;52.112;5.420;2024-01-11T04:19:43;23.43;;;10.17;;
75417;SDS011;63997;52.112;5.420;2024-01-11T04:22:10;25.42;;;11.25;;
75417;SDS011;63997;52.112;5.420;2024-01-11T04:24:36;26.67;;;11.52;;
75417;SDS011;63997;52.112;5.420;2024-01-11T04:27:03;28.42;;;12.07;;
75417;SDS011;63997;52.112;5.420;2024-01-11T04:29:30;28.15;;;12.18;;
75417;SDS011;63997;52.112;5.420;2024-01-11T04:31:56;23.60;;;10.97;;
75417;SDS011;63997;52.112;5.420;2024-01-11T04:34:24;29.35;;;11.73;;
75417;SDS011;63997;52.112;5.420;2024-01-11T04:36:51;32.30;;;11.10;;
75417;SDS011;63997;52.112;5.420;2024-01-11T04:39:17;26.75;;;11.07;;
75417;SDS011;63997;52.112;5.420;2024-01-11T04:41:44;23.38;;;10.55;;
75417;SDS011;63997;52.112;5.420;2024-01-11T04:44:11;28.40;;;12.23;;
75417;SDS011;63997;52.112;5.420;2024-01-11T04:46:37;32.40;;;11.93;;
75417;SDS011;63997;52.112;5.420;2024-01-11T04:49:05;28.63;;;11.60;;
75417;SDS011;63997;52.112;5.420;2024-01-11T04:51:31;27.45;;;11.82;;
75417;SDS011;63997;52.112;5.420;2024-01-11T04:53:58;26.17;;;11.88;;
75417;SDS011;63997;52.112;5.420;2024-01-11T04:56:24;24.97;;;12.57;;
75417;SDS011;63997;52.112;5.420;2024-01-11T04:59:00;27.58;;;13.05;;
75417;SDS011;63997;52.112;5.420;2024-01-11T05:01:27;29.30;;;11.93;;
75417;SDS011;63997;52.112;5.420;2024-01-11T05:03:53;25.42;;;11.70;;
75417;SDS011;63997;52.112;5.420;2024-01-11T05:06:20;29.02;;;11.23;;
75417;SDS011;63997;52.112;5.420;2024-01-11T05:08:49;27.83;;;11.93;;
75417;SDS011;63997;52.112;5.420;2024-01-11T05:11:18;27.10;;;11.98;;
75417;SDS011;63997;52.112;5.420;2024-01-11T05:13:46;31.98;;;11.95;;
75417;SDS011;63997;52.112;5.420;2024-01-11T05:18:44;24.67;;;12.27;;
75417;SDS011;63997;52.112;5.420;2024-01-11T05:21:12;24.83;;;11.40;;
75417;SDS011;63997;52.112;5.420;2024-01-11T05:23:39;24.17;;;10.45;;
75417;SDS011;63997;52.112;5.420;2024-01-11T05:26:08;26.45;;;13.00;;
75417;SDS011;63997;52.112;5.420;2024-01-11T05:28:36;27.05;;;12.68;;
75417;SDS011;63997;52.112;5.420;2024-01-11T05:31:08;29.40;;;13.60;;
75417;SDS011;63997;52.112;5.420;2024-01-11T05:33:36;28.77;;;12.27;;
75417;SDS011;63997;52.112;5.420;2024-01-11T05:36:03;22.92;;;12.05;;
75417;SDS011;63997;52.112;5.420;2024-01-11T05:38:30;27.10;;;12.52;;
75417;SDS011;63997;52.112;5.420;2024-01-11T05:40:57;26.50;;;12.05;;
75417;SDS011;63997;52.112;5.420;2024-01-11T05:43:24;28.40;;;11.98;;
75417;SDS011;63997;52.112;5.420;2024-01-11T05:45:50;27.03;;;11.40;;
75417;SDS011;63997;52.112;5.420;2024-01-11T05:48:17;27.13;;;10.98;;
75417;SDS011;63997;52.112;5.420;2024-01-11T05:50:44;25.85;;;12.23;;
75417;SDS011;63997;52.112;5.420;2024-01-11T05:53:11;31.17;;;12.15;;
75417;SDS011;63997;52.112;5.420;2024-01-11T05:55:38;32.00;;;11.88;;
75417;SDS011;63997;52.112;5.420;2024-01-11T05:58:05;30.73;;;11.83;;
75417;SDS011;63997;52.112;5.420;2024-01-11T06:00:32;21.25;;;10.70;;
75417;SDS011;63997;52.112;5.420;2024-01-11T06:02:58;31.33;;;13.43;;
75417;SDS011;63997;52.112;5.420;2024-01-11T06:05:25;25.73;;;12.35;;
75417;SDS011;63997;52.112;5.420;2024-01-11T06:07:52;28.38;;;11.73;;
75417;SDS011;63997;52.112;5.420;2024-01-11T06:10:19;23.40;;;12.03;;
75417;SDS011;63997;52.112;5.420;2024-01-11T06:12:46;28.83;;;12.48;;
75417;SDS011;63997;52.112;5.420;2024-01-11T06:15:12;27.08;;;13.52;;
75417;SDS011;63997;52.112;5.420;2024-01-11T06:17:39;32.38;;;13.43;;
75417;SDS011;63997;52.112;5.420;2024-01-11T06:20:06;26.15;;;11.48;;
75417;SDS011;63997;52.112;5.420;2024-01-11T06:22:33;29.07;;;13.30;;
75417;SDS011;63997;52.112;5.420;2024-01-11T06:25:00;34.42;;;13.40;;
75417;SDS011;63997;52.112;5.420;2024-01-11T06:27:26;31.70;;;13.23;;
75417;SDS011;63997;52.112;5.420;2024-01-11T06:29:53;29.42;;;12.23;;
75417;SDS011;63997;52.112;5.420;2024-01-11T06:32:19;28.67;;;13.02;;
75417;SDS011;63997;52.112;5.420;2024-01-11T06:34:46;24.83;;;12.57;;
75417;SDS011;63997;52.112;5.420;2024-01-11T06:37:13;29.42;;;13.88;;
75417;SDS011;63997;52.112;5.420;2024-01-11T06:39:49;29.65;;;13.23;;
75417;SDS011;63997;52.112;5.420;2024-01-11T06:42:16;28.25;;;13.65;;
75417;SDS011;63997;52.112;5.420;2024-01-11T06:44:44;31.05;;;12.75;;
75417;SDS011;63997;52.112;5.420;2024-01-11T06:47:11;34.43;;;13.90;;
75417;SDS011;63997;52.112;5.420;2024-01-11T06:49:38;33.65;;;14.07;;
75417;SDS011;63997;52.112;5.420;2024-01-11T06:52:07;31.10;;;13.38;;
75417;SDS011;63997;52.112;5.420;2024-01-11T06:54:34;30.55;;;12.55;;
75417;SDS011;63997;52.112;5.420;2024-01-11T06:57:00;31.38;;;13.73;;
75417;SDS011;63997;52.112;5.420;2024-01-11T07:01:56;30.67;;;12.25;;
75417;SDS011;63997;52.112;5.420;2024-01-11T07:04:23;30.92;;;13.57;;
75417;SDS011;63997;52.112;5.420;2024-01-11T07:06:50;26.65;;;12.77;;
75417;SDS011;63997;52.112;5.420;2024-01-11T07:09:18;39.55;;;14.32;;
75417;SDS011;63997;52.112;5.420;2024-01-11T07:11:44;28.73;;;13.30;;
75417;SDS011;63997;52.112;5.420;2024-01-11T07:14:11;28.70;;;13.38;;
75417;SDS011;63997;52.112;5.420;2024-01-11T07:16:37;25.13;;;12.13;;
75417;SDS011;63997;52.112;5.420;2024-01-11T07:19:05;28.60;;;13.43;;
75417;SDS011;63997;52.112;5.420;2024-01-11T07:21:32;29.08;;;12.85;;
75417;SDS011;63997;52.112;5.420;2024-01-11T07:23:59;31.43;;;13.17;;
75417;SDS011;63997;52.112;5.420;2024-01-11T07:26:25;27.05;;;12.50;;
75417;SDS011;63997;52.112;5.420;2024-01-11T07:28:53;31.50;;;13.77;;
75417;SDS011;63997;52.112;5.420;2024-01-11T07:31:22;28.45;;;12.90;;
75417;SDS011;63997;52.112;5.420;2024-01-11T07:33:49;32.17;;;13.85;;
75417;SDS011;63997;52.112;5.420;2024-01-11T07:36:17;32.73;;;13.20;;
75417;SDS011;63997;52.112;5.420;2024-01-11T07:38:43;30.48;;;14.20;;
75417;SDS011;63997;52.112;5.420;2024-01-11T07:41:10;30.48;;;14.40;;
75417;SDS011;63997;52.112;5.420;2024-01-11T07:43:38;34.88;;;14.65;;
75417;SDS011;63997;52.112;5.420;2024-01-11T07:46:19;26.85;;;12.50;;
75417;SDS011;63997;52.112;5.420;2024-01-11T07:48:59;28.63;;;13.23;;
75417;SDS011;63997;52.112;5.420;2024-01-11T07:51:26;29.17;;;12.77;;
75417;SDS011;63997;52.112;5.420;2024-01-11T07:53:53;29.98;;;14.20;;
75417;SDS011;63997;52.112;5.420;2024-01-11T07:56:19;31.25;;;12.45;;
75417;SDS011;63997;52.112;5.420;2024-01-11T07:58:48;31.33;;;13.13;;
75417;SDS011;63997;52.112;5.420;2024-01-11T08:01:15;37.97;;;13.47;;
75417;SDS011;63997;52.112;5.420;2024-01-11T08:03:42;31.67;;;14.70;;
75417;SDS011;63997;52.112;5.420;2024-01-11T08:06:11;35.08;;;14.90;;
75417;SDS011;63997;52.112;5.420;2024-01-11T08:08:40;31.88;;;12.75;;
75417;SDS011;63997;52.112;5.420;2024-01-11T08:11:07;27.95;;;14.23;;
75417;SDS011;63997;52.112;5.420;2024-01-11T08:13:34;34.77;;;13.33;;
75417;SDS011;63997;52.112;5.420;2024-01-11T08:16:01;30.25;;;13.63;;
75417;SDS011;63997;52.112;5.420;2024-01-11T08:18:32;34.03;;;15.27;;
75417;SDS011;63997;52.112;5.420;2024-01-11T08:20:58;33.67;;;14.15;;
75417;SDS011;63997;52.112;5.420;2024-01-11T08:23:25;33.25;;;14.65;;
75417;SDS011;63997;52.112;5.420;2024-01-11T08:25:51;34.83;;;15.70;;
75417;SDS011;63997;52.112;5.420;2024-01-11T08:28:21;33.35;;;14.77;;
75417;SDS011;63997;52.112;5.420;2024-01-11T08:30:48;34.50;;;15.10;;
75417;SDS011;63997;52.112;5.420;2024-01-11T08:33:15;32.40;;;15.40;;
75417;SDS011;63997;52.112;5.420;2024-01-11T08:35:42;36.42;;;15.00;;
75417;SDS011;63997;52.112;5.420;2024-01-11T08:38:10;29.37;;;15.20;;
75417;SDS011;63997;52.112;5.420;2024-01-11T08:40:38;33.38;;;14.27;;
75417;SDS011;63997;52.112;5.420;2024-01-11T08:43:04;41.50;;;16.30;;
75417;SDS011;63997;52.112;5.420;2024-01-11T08:45:32;35.83;;;16.52;;
75417;SDS011;63997;52.112;5.420;2024-01-11T08:47:59;35.10;;;16.15;;
75417;SDS011;63997;52.112;5.420;2024-01-11T08:50:26;39.50;;;15.90;;
75417;SDS011;63997;52.112;5.420;2024-01-11T08:52:54;30.80;;;14.27;;
75417;SDS011;63997;52.112;5.420;2024-01-11T08:55:22;38.00;;;16.80;;
75417;SDS011;63997;52.112;5.420;2024-01-11T08:57:48;32.33;;;15.13;;
75417;SDS011;63997;52.112;5.420;2024-01-11T09:00:16;35.30;;;15.48;;
75417;SDS011;63997;52.112;5.420;2024-01-11T09:02:44;34.80;;;15.00;;
75417;SDS011;63997;52.112;5.420;2024-01-11T09:05:15;38.55;;;16.13;;
75417;SDS011;63997;52.112;5.420;2024-01-11T09:07:42;32.88;;;16.02;;
75417;SDS011;63997;52.112;5.420;2024-01-11T09:10:09;36.85;;;15.73;;
75417;SDS011;63997;52.112;5.420;2024-01-11T09:12:37;32.00;;;15.35;;
75417;SDS011;63997;52.112;5.420;2024-01-11T09:15:04;35.47;;;15.23;;
75417;SDS011;63997;52.112;5.420;2024-01-11T09:17:31;32.40;;;14.60;;
75417;SDS011;63997;52.112;5.420;2024-01-11T09:20:01;39.42;;;15.77;;
75417;SDS011;63997;52.112;5.420;2024-01-11T09:22:27;34.22;;;15.98;;
75417;SDS011;63997;52.112;5.420;2024-01-11T09:24:54;33.80;;;15.27;;
75417;SDS011;63997;52.112;5.420;2024-01-11T09:27:21;40.03;;;15.10;;
75417;SDS011;63997;52.112;5.420;2024-01-11T09:29:48;30.55;;;13.90;;
75417;SDS011;63997;52.112;5.420;2024-01-11T09:32:19;26.98;;;13.23;;
75417;SDS011;63997;52.112;5.420;2024-01-11T09:34:46;30.90;;;13.68;;
75417;SDS011;63997;52.112;5.420;2024-01-11T09:37:13;31.35;;;14.02;;
75417;SDS011;63997;52.112;5.420;2024-01-11T09:39:41;31.17;;;13.40;;
75417;SDS011;63997;52.112;5.420;2024-01-11T09:42:08;30.52;;;11.90;;
75417;SDS011;63997;52.112;5.420;2024-01-11T09:44:36;26.52;;;12.02;;
75417;SDS011;63997;52.112;5.420;2024-01-11T09:47:08;25.70;;;11.85;;
75417;SDS011;63997;52.112;5.420;2024-01-11T09:49:42;32.95;;;13.02;;
75417;SDS011;63997;52.112;5.420;2024-01-11T09:52:09;28.37;;;12.07;;
75417;SDS011;63997;52.112;5.420;2024-01-11T09:54:39;27.42;;;11.63;;
75417;SDS011;63997;52.112;5.420;2024-01-11T09:57:06;28.98;;;12.07;;
75417;SDS011;63997;52.112;5.420;2024-01-11T09:59:35;30.63;;;11.80;;
75417;SDS011;63997;52.112;5.420;2024-01-11T10:02:03;26.90;;;10.95;;
75417;SDS011;63997;52.112;5.420;2024-01-11T10:04:30;32.83;;;11.13;;
75417;SDS011;63997;52.112;5.420;2024-01-11T10:06:56;29.90;;;12.65;;
75417;SDS011;63997;52.112;5.420;2024-01-11T10:09:24;32.45;;;11.48;;
75417;SDS011;63997;52.112;5.420;2024-01-11T10:11:51;29.60;;;10.82;;
75417;SDS011;63997;52.112;5.420;2024-01-11T10:14:20;31.42;;;11.68;;
75417;SDS011;63997;52.112;5.420;2024-01-11T10:16:47;28.20;;;10.30;;
75417;SDS011;63997;52.112;5.420;2024-01-11T10:19:14;30.55;;;11.25;;
75417;SDS011;63997;52.112;5.420;2024-01-11T10:21:43;33.20;;;12.15;;
75417;SDS011;63997;52.112;5.420;2024-01-11T10:24:09;29.35;;;11.07;;
75417;SDS011;63997;52.112;5.420;2024-01-11T10:26:36;26.35;;;10.82;;
75417;SDS011;63997;52.112;5.420;2024-01-11T10:29:09;34.27;;;12.77;;
75417;SDS011;63997;52.112;5.420;2024-01-11T10:31:39;25.17;;;11.05;;
75417;SDS011;63997;52.112;5.420;2024-01-11T10:34:06;33.83;;;11.35;;
75417;SDS011;63997;52.112;5.420;2024-01-11T10:36:33;41.05;;;13.43;;
75417;SDS011;63997;52.112;5.420;2024-01-11T10:39:01;31.55;;;10.65;;
75417;SDS011;63997;52.112;5.420;2024-01-11T10:41:32;27.13;;;11.57;;
75417;SDS011;63997;52.112;5.420;2024-01-11T10:44:05;29.02;;;11.18;;
75417;SDS011;63997;52.112;5.420;2024-01-11T10:46:43;23.67;;;10.85;;
75417;SDS011;63997;52.112;5.420;2024-01-11T10:49:13;26.95;;;9.88;;
75417;SDS011;63997;52.112;5.420;2024-01-11T10:52:02;31.60;;;11.10;;
75417;SDS011;63997;52.112;5.420;2024-01-11T10:54:33;31.90;;;11.43;;
75417;SDS011;63997;52.112;5.420;2024-01-11T10:57:01;31.13;;;11.40;;
75417;SDS011;63997;52.112;5.420;2024-01-11T10:59:27;30.20;;;10.35;;
75417;SDS011;63997;52.112;5.420;2024-01-11T11:01:57;36.83;;;10.98;;
75417;SDS011;63997;52.112;5.420;2024-01-11T11:04:29;34.10;;;12.50;;
75417;SDS011;63997;52.112;5.420;2024-01-11T11:06:57;28.53;;;11.17;;
75417;SDS011;63997;52.112;5.420;2024-01-11T11:09:27;23.90;;;9.80;;
75417;SDS011;63997;52.112;5.420;2024-01-11T11:11:57;30.15;;;10.85;;
75417;SDS011;63997;52.112;5.420;2024-01-11T11:14:25;31.25;;;10.23;;
75417;SDS011;63997;52.112;5.420;2024-01-11T11:16:51;32.30;;;11.45;;
75417;SDS011;63997;52.112;5.420;2024-01-11T11:19:19;39.30;;;12.40;;
75417;SDS011;63997;52.112;5.420;2024-01-11T11:21:47;29.83;;;10.40;;
75417;SDS011;63997;52.112;5.420;2024-01-11T11:24:15;29.90;;;11.15;;
75417;SDS011;63997;52.112;5.420;2024-01-11T11:26:45;30.65;;;11.52;;
75417;SDS011;63997;52.112;5.420;2024-01-11T11:29:14;28.17;;;12.57;;
75417;SDS011;63997;52.112;5.420;2024-01-11T11:31:42;32.80;;;12.73;;
75417;SDS011;63997;52.112;5.420;2024-01-11T11:34:12;29.95;;;11.18;;
75417;SDS011;63997;52.112;5.420;2024-01-11T11:36:40;32.28;;;11.25;;
75417;SDS011;63997;52.112;5.420;2024-01-11T11:39:10;30.30;;;11.65;;
75417;SDS011;63997;52.112;5.420;2024-01-11T11:41:40;24.58;;;10.55;;
75417;SDS011;63997;52.112;5.420;2024-01-11T11:44:09;27.00;;;11.13;;
75417;SDS011;63997;52.112;5.420;2024-01-11T11:46:39;21.75;;;9.40;;
75417;SDS011;63997;52.112;5.420;2024-01-11T11:49:06;27.65;;;10.32;;
75417;SDS011;63997;52.112;5.420;2024-01-11T11:51:33;32.60;;;10.77;;
75417;SDS011;63997;52.112;5.420;2024-01-11T11:54:01;34.85;;;11.27;;
75417;SDS011;63997;52.112;5.420;2024-01-11T11:56:29;31.10;;;9.97;;
75417;SDS011;63997;52.112;5.420;2024-01-11T11:58:58;31.42;;;11.30;;
75417;SDS011;63997;52.112;5.420;2024-01-11T12:01:24;25.55;;;10.77;;
75417;SDS011;63997;52.112;5.420;2024-01-11T12:03:52;26.02;;;10.40;;
75417;SDS011;63997;52.112;5.420;2024-01-11T12:06:19;26.58;;;10.68;;
75417;SDS011;63997;52.112;5.420;2024-01-11T12:08:50;24.90;;;10.77;;
75417;SDS011;63997;52.112;5.420;2024-01-11T12:11:22;26.85;;;9.98;;
75417;SDS011;63997;52.112;5.420;2024-01-11T12:13:50;25.35;;;9.90;;
75417;SDS011;63997;52.112;5.420;2024-01-11T12:16:17;27.55;;;8.98;;
75417;SDS011;63997;52.112;5.420;2024-01-11T12:18:43;23.85;;;10.15;;
75417;SDS011;63997;52.112;5.420;2024-01-11T12:21:10;25.30;;;8.90;;
75417;SDS011;63997;52.112;5.420;2024-01-11T12:23:38;27.35;;;10.88;;
75417;SDS011;63997;52.112;5.420;2024-01-11T12:26:08;19.70;;;8.95;;
75417;SDS011;63997;52.112;5.420;2024-01-11T12:28:41;22.35;;;9.90;;
75417;SDS011;63997;52.112;5.420;2024-01-11T12:31:09;22.48;;;9.98;;
75417;SDS011;63997;52.112;5.420;2024-01-11T12:33:36;22.23;;;9.13;;
75417;SDS011;63997;52.112;5.420;2024-01-11T12:36:05;24.88;;;9.35;;
75417;SDS011;63997;52.112;5.420;2024-01-11T12:38:34;28.27;;;10.52;;
75417;SDS011;63997;52.112;5.420;2024-01-11T12:41:01;22.05;;;9.77;;
75417;SDS011;63997;52.112;5.420;2024-01-11T12:43:28;20.98;;;9.85;;
75417;SDS011;63997;52.112;5.420;2024-01-11T12:45:55;23.17;;;9.07;;
75417;SDS011;63997;52.112;5.420;2024-01-11T12:48:22;23.13;;;9.95;;
75417;SDS011;63997;52.112;5.420;2024-01-11T12:50:50;20.48;;;9.38;;
75417;SDS011;63997;52.112;5.420;2024-01-11T12:53:39;28.35;;;10.07;;
75417;SDS011;63997;52.112;5.420;2024-01-11T12:56:06;22.55;;;9.40;;
75417;SDS011;63997;52.112;5.420;2024-01-11T12:58:39;30.17;;;10.33;;
75417;SDS011;63997;52.112;5.420;2024-01-11T13:01:07;24.60;;;9.57;;
75417;SDS011;63997;52.112;5.420;2024-01-11T13:03:34;19.30;;;8.90;;
75417;SDS011;63997;52.112;5.420;2024-01-11T13:06:02;30.85;;;9.77;;
75417;SDS011;63997;52.112;5.420;2024-01-11T13:08:31;21.05;;;9.32;;
75417;SDS011;63997;52.112;5.420;2024-01-11T13:10:58;24.97;;;9.40;;
75417;SDS011;63997;52.112;5.420;2024-01-11T13:13:25;23.50;;;9.80;;
75417;SDS011;63997;52.112;5.420;2024-01-11T13:15:52;21.38;;;7.85;;
75417;SDS011;63997;52.112;5.420;2024-01-11T13:18:19;22.30;;;9.07;;
75417;SDS011;63997;52.112;5.420;2024-01-11T13:20:46;21.85;;;8.90;;
75417;SDS011;63997;52.112;5.420;2024-01-11T13:25:48;21.65;;;8.82;;
75417;SDS011;63997;52.112;5.420;2024-01-11T13:28:16;23.00;;;8.93;;
75417;SDS011;63997;52.112;5.420;2024-01-11T13:30:45;23.13;;;9.57;;
75417;SDS011;63997;52.112;5.420;2024-01-11T13:33:12;21.10;;;8.32;;
75417;SDS011;63997;52.112;5.420;2024-01-11T13:35:39;22.37;;;9.73;;
75417;SDS011;63997;52.112;5.420;2024-01-11T13:38:07;24.27;;;9.23;;
75417;SDS011;63997;52.112;5.420;2024-01-11T13:40:34;20.00;;;10.40;;
75417;SDS011;63997;52.112;5.420;2024-01-11T13:43:01;24.33;;;9.75;;
75417;SDS011;63997;52.112;5.420;2024-01-11T13:45:29;20.92;;;9.68;;
75417;SDS011;63997;52.112;5.420;2024-01-11T13:47:56;24.47;;;9.27;;
75417;SDS011;63997;52.112;5.420;2024-01-11T13:50:23;20.08;;;9.27;;
75417;SDS011;63997;52.112;5.420;2024-01-11T13:52:51;23.25;;;9.63;;
75417;SDS011;63997;52.112;5.420;2024-01-11T13:55:18;17.73;;;8.40;;
75417;SDS011;63997;52.112;5.420;2024-01-11T13:57:50;20.55;;;8.90;;
75417;SDS011;63997;52.112;5.420;2024-01-11T14:00:19;23.00;;;9.00;;
75417;SDS011;63997;52.112;5.420;2024-01-11T14:02:46;22.70;;;8.75;;
75417;SDS011;63997;52.112;5.420;2024-01-11T14:05:14;22.60;;;9.63;;
75417;SDS011;63997;52.112;5.420;2024-01-11T14:07:42;24.90;;;8.93;;
75417;SDS011;63997;52.112;5.420;2024-01-11T14:10:11;22.38;;;9.75;;
75417;SDS011;63997;52.112;5.420;2024-01-11T14:12:39;24.97;;;8.87;;
75417;SDS011;63997;52.112;5.420;2024-01-11T14:15:06;27.10;;;8.80;;
75417;SDS011;63997;52.112;5.420;2024-01-11T14:17:38;20.67;;;8.85;;
75417;SDS011;63997;52.112;5.420;2024-01-11T14:20:06;21.33;;;8.68;;
75417;SDS011;63997;52.112;5.420;2024-01-11T14:22:40;23.00;;;9.00;;
75417;SDS011;63997;52.112;5.420;2024-01-11T14:25:07;18.47;;;7.97;;
75417;SDS011;63997;52.112;5.420;2024-01-11T14:27:37;18.52;;;7.80;;
75417;SDS011;63997;52.112;5.420;2024-01-11T14:30:05;19.80;;;8.45;;
75417;SDS011;63997;52.112;5.420;2024-01-11T14:32:33;21.77;;;8.57;;
75417;SDS011;63997;52.112;5.420;2024-01-11T14:35:03;21.23;;;10.00;;
75417;SDS011;63997;52.112;5.420;2024-01-11T14:37:32;18.93;;;8.30;;
75417;SDS011;63997;52.112;5.420;2024-01-11T14:40:01;22.25;;;8.65;;